Clipper Saga — LAFY6 — position and weather

sailwx.info

Track history (hours):
 
Tides and Currents Weather Stations Pressure Air Temp Water Temp Dewpoint Dewpoint Depression Visibility Wind Speed Wind Dir Waves Ship Positions

Clipper Saga

Last reported at 2014-Sep-30 21:32 UTC. Time now 2014-Sep-30 21:56 UTC.
Position N 51°49' E 003°22'.

Length 89 m; draft 5.9 m.

Type: Ship (hazmat cat C). MMSI: 246657008.

Date/timePositionNaut miles runAvg speedWind from/ knotsBaromVisibWave heightAir tempDewpointWater temp
2014-Sep-30 21:32N 51°49' E 003°22'0 0.0
2014-Sep-30 20:14N 51°49' E 003°22'0 0.0
2014-Sep-30 19:32N 51°49' E 003°22'0 0.0
2014-Sep-30 18:11N 51°49' E 003°22'0 0.0
2014-Sep-30 15:29N 51°49' E 003°22'0 0.1
2014-Sep-30 14:32N 51°49' E 003°22'0 0.1
2014-Sep-30 13:32N 51°49' E 003°22'0 0.0
2014-Sep-30 12:32N 51°49' E 003°22'0 0.0
2014-Sep-30 10:32N 51°49' E 003°22'0 0.1
2014-Sep-30 09:17N 51°49' E 003°22'0 0.0
2014-Sep-30 07:32N 51°49' E 003°22'0 0.0
2014-Sep-30 04:26N 51°49' E 003°22'0 0.0
2014-Sep-30 02:11N 51°49' E 003°22'0 0.1
2014-Sep-30 01:32N 51°49' E 003°22'0 0.0
2014-Sep-30 00:26N 51°49' E 003°22'0 0.0
2014-Sep-29 23:29N 51°49' E 003°22'3 3.2
2014-Sep-29 22:31N 51°51' E 003°19'1311.9
2014-Sep-29 21:27N 52°04' E 003°21'1011.3
2014-Sep-29 20:33N 52°14' E 003°23'9010.7
2014-Sep-29 12:08N 53°32' E 004°37'811.6
2014-Sep-29 11:29N 53°40' E 004°41'1111.1
2014-Sep-29 10:29N 53°50' E 004°46'1010.4
2014-Sep-29 09:33N 53°60' E 004°51'1110.5
2014-Sep-29 08:32N 54°10' E 004°56'1010.5
2014-Sep-29 07:33N 54°19' E 005°05'4911.1
2014-Sep-29 03:08N 55°01' E 005°48'711.7
2014-Sep-29 02:32N 55°07' E 005°55'1110.8
2014-Sep-29 01:32N 55°16' E 006°05'3511.1
2014-Sep-28 22:25N 55°45' E 006°37'16110.0
2014-Sep-28 06:20N 57°45' E 009°54'7 9.1
2014-Sep-28 05:32N 57°48' E 010°07'8 8.0
2014-Sep-28 04:33N 57°49' E 010°21'8 8.1
2014-Sep-28 03:33N 57°50' E 010°36'8 8.1
2014-Sep-28 02:33N 57°51' E 010°51'8 7.8
2014-Sep-28 01:33N 57°51' E 011°06'9 8.7
2014-Sep-28 00:33N 57°51' E 011°22'8 8.3
2014-Sep-27 23:33N 57°55' E 011°36'1010.1
2014-Sep-27 22:34N 58°03' E 011°47'2 0.1
2014-Sep-27 00:33N 58°05' E 011°49'4 4.1
2014-Sep-26 23:33N 58°01' E 011°47'6 6.3
2014-Sep-26 22:33N 57°56' E 011°41'0 0.0
2014-Sep-26 21:33N 57°56' E 011°41'0 0.0
2014-Sep-26 20:33N 57°56' E 011°41'0 0.0
2014-Sep-26 19:33N 57°56' E 011°41'1 1.5
2014-Sep-26 18:33N 57°55' E 011°39'1010.3
2014-Sep-26 17:33N 57°51' E 011°21'3 2.5
2014-Sep-26 16:33N 57°53' E 011°20'8 8.2
2014-Sep-26 15:33N 57°57' E 011°06'1 0.6
2014-Sep-26 14:33N 57°57' E 011°07'7 6.8
2014-Sep-26 13:33N 57°56' E 010°55'8 8.2
2014-Sep-26 12:33N 57°51' E 011°07'1010.5
2014-Sep-26 11:33N 57°44' E 011°20'1111.1
2014-Sep-26 10:33N 57°38' E 011°39'5 5.1
2014-Sep-26 09:32N 57°40' E 011°48'0 0.0
2014-Sep-26 08:32N 57°40' E 011°48'4 3.8
2014-Sep-26 07:33N 57°41' E 011°54'6 5.8
2014-Sep-26 06:33N 57°46' E 012°00'5 5.4
2014-Sep-26 05:33N 57°52' E 012°01'7 6.8
2014-Sep-26 04:33N 57°58' E 012°07'9 8.9
2014-Sep-26 03:33N 58°06' E 012°08'2 1.9
2014-Sep-26 02:33N 58°08' E 012°07'3 2.9
2014-Sep-26 01:33N 58°11' E 012°07'6 6.3
2014-Sep-26 00:33N 58°16' E 012°15'0 0.4
2014-Sep-25 23:33N 58°16' E 012°16'5 5.2
2014-Sep-25 22:33N 58°20' E 012°21'3 2.8
2014-Sep-25 21:33N 58°23' E 012°19'6 6.3
2014-Sep-25 20:33N 58°28' E 012°26'1010.5
2014-Sep-25 19:33N 58°36' E 012°40'1312.5
2014-Sep-25 18:33N 58°43' E 012°59'0 0.0
2014-Sep-24 12:33N 58°43' E 012°58'1211.7
2014-Sep-24 11:33N 58°36' E 012°41'1212.0
2014-Sep-24 10:34N 58°27' E 012°25'6 6.3
2014-Sep-24 09:34N 58°21' E 012°20'2 2.0
2014-Sep-24 08:33N 58°19' E 012°20'4 4.0
2014-Sep-24 07:34N 58°16' E 012°16'0 0.3
2014-Sep-24 06:33N 58°16' E 012°15'2 1.7
2014-Sep-24 05:33N 58°15' E 012°13'7 7.1
2014-Sep-24 04:33N 58°08' E 012°07'0 0.0
2014-Sep-24 03:33N 58°08' E 012°07'0 0.0
2014-Sep-24 02:33N 58°08' E 012°07'0 0.0
2014-Sep-24 01:33N 58°08' E 012°07'0 0.0
2014-Sep-24 00:33N 58°08' E 012°07'0 0.0
2014-Sep-23 23:33N 58°08' E 012°07'0 0.0
2014-Sep-23 22:33N 58°08' E 012°07'0 0.0
2014-Sep-23 21:33N 58°08' E 012°07'0 0.0
2014-Sep-23 20:33N 58°08' E 012°07'0 0.0
2014-Sep-23 19:33N 58°08' E 012°07'0 0.0
2014-Sep-23 18:33N 58°08' E 012°07'0 0.4
2014-Sep-23 17:33N 58°08' E 012°07'7 6.6
2014-Sep-23 16:33N 58°01' E 012°09'7 7.4
2014-Sep-23 15:33N 57°55' E 012°03'7 6.7
2014-Sep-23 14:33N 57°48' E 012°01'5 4.8
2014-Sep-23 13:33N 57°43' E 011°59'7 6.7
2014-Sep-23 12:33N 57°40' E 011°48'0 0.2
2014-Sep-23 11:32N 57°40' E 011°48'0 0.0
2014-Sep-23 10:32N 57°40' E 011°48'0 0.0
2014-Sep-23 09:32N 57°40' E 011°48'0 0.0
2014-Sep-23 08:32N 57°40' E 011°48'0 0.0
2014-Sep-23 07:32N 57°40' E 011°48'0 0.0
2014-Sep-23 06:32N 57°40' E 011°48'0 0.0
2014-Sep-23 05:32N 57°40' E 011°48'0 0.0
2014-Sep-23 04:32N 57°40' E 011°48'0 0.1
2014-Sep-23 03:32N 57°40' E 011°48'0 0.0
2014-Sep-23 02:32N 57°40' E 011°48'0 0.0
2014-Sep-23 01:32N 57°40' E 011°48'0 0.0
2014-Sep-23 00:32N 57°40' E 011°48'0 0.0
2014-Sep-22 23:32N 57°40' E 011°48'0 0.0
2014-Sep-22 22:32N 57°40' E 011°48'0 0.0
2014-Sep-22 21:32N 57°40' E 011°48'3 3.3
2014-Sep-22 20:33N 57°39' E 011°42'6 6.1
2014-Sep-22 19:33N 57°36' E 011°32'6 6.3
2014-Sep-22 18:33N 57°39' E 011°22'1111.3
2014-Sep-22 17:33N 57°44' E 011°03'1111.4
2014-Sep-22 16:34N 57°49' E 010°44'9 9.4
2014-Sep-22 15:33N 57°48' E 010°26'150 8.1
2014-Sep-21 21:04N 58°06' E 005°45'910.3
2014-Sep-21 20:12N 58°11' E 005°32'  
Track history (hours):
 
Tides and Currents Weather Stations Pressure Air Temp Water Temp Dewpoint Dewpoint Depression Visibility Wind Speed Wind Dir Waves Ship Positions

Clipper Saga

Last reported at 2014-Sep-30 21:32 UTC. Time now 2014-Sep-30 21:56 UTC.
Position N 51°49' E 003°22'.

Length 89 m; draft 5.9 m.

Type: Ship (hazmat cat C). MMSI: 246657008.

Date/timePositionNaut miles runAvg speedWind from/ knotsBaromVisibWave heightAir tempDewpointWater temp
2014-Sep-30 21:32N 51°49' E 003°22'0 0.0
2014-Sep-30 20:14N 51°49' E 003°22'0 0.0
2014-Sep-30 19:32N 51°49' E 003°22'0 0.0
2014-Sep-30 18:11N 51°49' E 003°22'0 0.0
2014-Sep-30 15:29N 51°49' E 003°22'0 0.1
2014-Sep-30 14:32N 51°49' E 003°22'0 0.1
2014-Sep-30 13:32N 51°49' E 003°22'0 0.0
2014-Sep-30 12:32N 51°49' E 003°22'0 0.0
2014-Sep-30 10:32N 51°49' E 003°22'0 0.1
2014-Sep-30 09:17N 51°49' E 003°22'0 0.0
2014-Sep-30 07:32N 51°49' E 003°22'0 0.0
2014-Sep-30 04:26N 51°49' E 003°22'0 0.0
2014-Sep-30 02:11N 51°49' E 003°22'0 0.1
2014-Sep-30 01:32N 51°49' E 003°22'0 0.0
2014-Sep-30 00:26N 51°49' E 003°22'0 0.0
2014-Sep-29 23:29N 51°49' E 003°22'3 3.2
2014-Sep-29 22:31N 51°51' E 003°19'1311.9
2014-Sep-29 21:27N 52°04' E 003°21'1011.3
2014-Sep-29 20:33N 52°14' E 003°23'9010.7
2014-Sep-29 12:08N 53°32' E 004°37'811.6
2014-Sep-29 11:29N 53°40' E 004°41'1111.1
2014-Sep-29 10:29N 53°50' E 004°46'1010.4
2014-Sep-29 09:33N 53°60' E 004°51'1110.5
2014-Sep-29 08:32N 54°10' E 004°56'1010.5
2014-Sep-29 07:33N 54°19' E 005°05'4911.1
2014-Sep-29 03:08N 55°01' E 005°48'711.7
2014-Sep-29 02:32N 55°07' E 005°55'1110.8
2014-Sep-29 01:32N 55°16' E 006°05'3511.1
2014-Sep-28 22:25N 55°45' E 006°37'16110.0
2014-Sep-28 06:20N 57°45' E 009°54'7 9.1
2014-Sep-28 05:32N 57°48' E 010°07'8 8.0
2014-Sep-28 04:33N 57°49' E 010°21'8 8.1
2014-Sep-28 03:33N 57°50' E 010°36'8 8.1
2014-Sep-28 02:33N 57°51' E 010°51'8 7.8
2014-Sep-28 01:33N 57°51' E 011°06'9 8.7
2014-Sep-28 00:33N 57°51' E 011°22'8 8.3
2014-Sep-27 23:33N 57°55' E 011°36'1010.1
2014-Sep-27 22:34N 58°03' E 011°47'2 0.1
2014-Sep-27 00:33N 58°05' E 011°49'4 4.1
2014-Sep-26 23:33N 58°01' E 011°47'6 6.3
2014-Sep-26 22:33N 57°56' E 011°41'0 0.0
2014-Sep-26 21:33N 57°56' E 011°41'0 0.0
2014-Sep-26 20:33N 57°56' E 011°41'0 0.0
2014-Sep-26 19:33N 57°56' E 011°41'1 1.5
2014-Sep-26 18:33N 57°55' E 011°39'1010.3
2014-Sep-26 17:33N 57°51' E 011°21'3 2.5
2014-Sep-26 16:33N 57°53' E 011°20'8 8.2
2014-Sep-26 15:33N 57°57' E 011°06'1 0.6
2014-Sep-26 14:33N 57°57' E 011°07'7 6.8
2014-Sep-26 13:33N 57°56' E 010°55'8 8.2
2014-Sep-26 12:33N 57°51' E 011°07'1010.5
2014-Sep-26 11:33N 57°44' E 011°20'1111.1
2014-Sep-26 10:33N 57°38' E 011°39'5 5.1
2014-Sep-26 09:32N 57°40' E 011°48'0 0.0
2014-Sep-26 08:32N 57°40' E 011°48'4 3.8
2014-Sep-26 07:33N 57°41' E 011°54'6 5.8
2014-Sep-26 06:33N 57°46' E 012°00'5 5.4
2014-Sep-26 05:33N 57°52' E 012°01'7 6.8
2014-Sep-26 04:33N 57°58' E 012°07'9 8.9
2014-Sep-26 03:33N 58°06' E 012°08'2 1.9
2014-Sep-26 02:33N 58°08' E 012°07'3 2.9
2014-Sep-26 01:33N 58°11' E 012°07'6 6.3
2014-Sep-26 00:33N 58°16' E 012°15'0 0.4
2014-Sep-25 23:33N 58°16' E 012°16'5 5.2
2014-Sep-25 22:33N 58°20' E 012°21'3 2.8
2014-Sep-25 21:33N 58°23' E 012°19'6 6.3
2014-Sep-25 20:33N 58°28' E 012°26'1010.5
2014-Sep-25 19:33N 58°36' E 012°40'1312.5
2014-Sep-25 18:33N 58°43' E 012°59'0 0.0
2014-Sep-24 12:33N 58°43' E 012°58'1211.7
2014-Sep-24 11:33N 58°36' E 012°41'1212.0
2014-Sep-24 10:34N 58°27' E 012°25'6 6.3
2014-Sep-24 09:34N 58°21' E 012°20'2 2.0
2014-Sep-24 08:33N 58°19' E 012°20'4 4.0
2014-Sep-24 07:34N 58°16' E 012°16'0 0.3
2014-Sep-24 06:33N 58°16' E 012°15'2 1.7
2014-Sep-24 05:33N 58°15' E 012°13'7 7.1
2014-Sep-24 04:33N 58°08' E 012°07'0 0.0
2014-Sep-24 03:33N 58°08' E 012°07'0 0.0
2014-Sep-24 02:33N 58°08' E 012°07'0 0.0
2014-Sep-24 01:33N 58°08' E 012°07'0 0.0
2014-Sep-24 00:33N 58°08' E 012°07'0 0.0
2014-Sep-23 23:33N 58°08' E 012°07'0 0.0
2014-Sep-23 22:33N 58°08' E 012°07'0 0.0
2014-Sep-23 21:33N 58°08' E 012°07'0 0.0
2014-Sep-23 20:33N 58°08' E 012°07'0 0.0
2014-Sep-23 19:33N 58°08' E 012°07'0 0.0
2014-Sep-23 18:33N 58°08' E 012°07'0 0.4
2014-Sep-23 17:33N 58°08' E 012°07'7 6.6
2014-Sep-23 16:33N 58°01' E 012°09'7 7.4
2014-Sep-23 15:33N 57°55' E 012°03'7 6.7
2014-Sep-23 14:33N 57°48' E 012°01'5 4.8
2014-Sep-23 13:33N 57°43' E 011°59'7 6.7
2014-Sep-23 12:33N 57°40' E 011°48'0 0.2
2014-Sep-23 11:32N 57°40' E 011°48'0 0.0
2014-Sep-23 10:32N 57°40' E 011°48'0 0.0
2014-Sep-23 09:32N 57°40' E 011°48'0 0.0
2014-Sep-23 08:32N 57°40' E 011°48'0 0.0
2014-Sep-23 07:32N 57°40' E 011°48'0 0.0
2014-Sep-23 06:32N 57°40' E 011°48'0 0.0
2014-Sep-23 05:32N 57°40' E 011°48'0 0.0
2014-Sep-23 04:32N 57°40' E 011°48'0 0.1
2014-Sep-23 03:32N 57°40' E 011°48'0 0.0
2014-Sep-23 02:32N 57°40' E 011°48'0 0.0
2014-Sep-23 01:32N 57°40' E 011°48'0 0.0
2014-Sep-23 00:32N 57°40' E 011°48'0 0.0
2014-Sep-22 23:32N 57°40' E 011°48'0 0.0
2014-Sep-22 22:32N 57°40' E 011°48'0 0.0
2014-Sep-22 21:32N 57°40' E 011°48'3 3.3
2014-Sep-22 20:33N 57°39' E 011°42'6 6.1
2014-Sep-22 19:33N 57°36' E 011°32'6 6.3
2014-Sep-22 18:33N 57°39' E 011°22'1111.3
2014-Sep-22 17:33N 57°44' E 011°03'1111.4
2014-Sep-22 16:34N 57°49' E 010°44'9 9.4
2014-Sep-22 15:33N 57°48' E 010°26'150 8.1
2014-Sep-21 21:04N 58°06' E 005°45'910.3
2014-Sep-21 20:12N 58°11' E 005°32'  

Dump ship's entire track history